Time;durP1;ratioP1;P1;durP2;ratioP2;P2;SDS_P1;SDS_P2;PMS_P1;PMS_P2;Temp;Humidity;BMP_temperature;BMP_pressure;BME280_temperature;BME280_humidity;BME280_pressure;Samples;Min_cycle;Max_cycle;Signal;HPM_P1;HPM_P2
2023/10/14 00:00:46;;;;;;;56.10;2.07;;;;;;;;;;5050686;28;20463;-72
2023/10/14 00:03:26;;;;;;;55.77;2.00;;;;;;;;;;5051028;28;20448;-72
2023/10/14 00:05:53;;;;;;;55.67;1.87;;;;;;;;;;5051169;28;20447;-72
2023/10/14 00:08:20;;;;;;;56.00;2.50;;;;;;;;;;5050980;28;20502;-72
2023/10/14 00:10:47;;;;;;;56.77;2.27;;;;;;;;;;5050888;28;20444;-72
2023/10/14 00:13:16;;;;;;;56.40;2.20;;;;;;;;;;5051038;28;20458;-72
2023/10/14 00:15:45;;;;;;;56.17;2.10;;;;;;;;;;5051060;28;20483;-72
2023/10/14 00:18:12;;;;;;;56.60;2.30;;;;;;;;;;5051105;28;20548;-72
2023/10/14 00:20:42;;;;;;;56.47;2.13;;;;;;;;;;5050830;28;20452;-72
2023/10/14 00:23:11;;;;;;;55.90;1.90;;;;;;;;;;5050800;28;20943;-72
2023/10/14 00:25:38;;;;;;;55.90;2.00;;;;;;;;;;5050991;28;20451;-72
2023/10/14 00:28:12;;;;;;;57.37;2.70;;;;;;;;;;5051172;28;20796;-72
2023/10/14 00:30:40;;;;;;;55.97;1.83;;;;;;;;;;5051028;28;20509;-72
2023/10/14 00:33:07;;;;;;;55.93;2.17;;;;;;;;;;5050916;28;20826;-72
2023/10/14 00:35:39;;;;;;;57.03;2.40;;;;;;;;;;5050669;28;20452;-72
2023/10/14 00:38:12;;;;;;;56.27;2.20;;;;;;;;;;5043165;28;20455;-72
2023/10/14 00:40:39;;;;;;;55.43;2.03;;;;;;;;;;5050930;28;20459;-72
2023/10/14 00:43:07;;;;;;;55.50;1.90;;;;;;;;;;5050881;28;20445;-72
2023/10/14 00:45:43;;;;;;;56.40;2.40;;;;;;;;;;5050840;28;20487;-72
2023/10/14 00:48:12;;;;;;;57.17;2.60;;;;;;;;;;5043403;28;20468;-72
2023/10/14 00:50:41;;;;;;;56.20;1.77;;;;;;;;;;5050811;28;20445;-72
2023/10/14 00:53:10;;;;;;;56.60;2.13;;;;;;;;;;5050851;28;20456;-71
2023/10/14 00:55:46;;;;;;;56.33;2.63;;;;;;;;;;5050873;28;20467;-71
2023/10/14 00:58:20;;;;;;;56.60;2.73;;;;;;;;;;5043759;28;20451;-71
2023/10/14 01:00:57;;;;;;;55.57;2.00;;;;;;;;;;5050501;28;20501;-71
2023/10/14 01:03:25;;;;;;;55.90;2.10;;;;;;;;;;5050764;28;20455;-71
2023/10/14 01:05:54;;;;;;;56.63;2.30;;;;;;;;;;5050422;28;20451;-72
2023/10/14 01:08:24;;;;;;;55.77;2.10;;;;;;;;;;5050294;28;20470;-72
2023/10/14 01:10:51;;;;;;;56.30;2.20;;;;;;;;;;5050512;28;20452;-71
2023/10/14 01:13:22;;;;;;;56.20;2.57;;;;;;;;;;5050408;28;20840;-71
2023/10/14 01:15:51;;;;;;;57.70;2.53;;;;;;;;;;5050456;28;20635;-72
2023/10/14 01:18:18;;;;;;;56.80;2.57;;;;;;;;;;5050451;28;20465;-72
2023/10/14 01:20:46;;;;;;;56.53;2.47;;;;;;;;;;5050207;28;20455;-72
2023/10/14 01:23:16;;;;;;;57.47;2.60;;;;;;;;;;5053262;28;20455;-72
2023/10/14 01:25:48;;;;;;;57.00;3.13;;;;;;;;;;5053848;28;20582;-72
2023/10/14 01:28:20;;;;;;;56.30;2.10;;;;;;;;;;5054067;28;21073;-72
2023/10/14 01:30:56;;;;;;;56.17;2.07;;;;;;;;;;5054468;28;20459;-72
2023/10/14 01:33:25;;;;;;;56.07;2.10;;;;;;;;;;5054113;28;20532;-72
2023/10/14 01:35:52;;;;;;;58.97;2.80;;;;;;;;;;5053732;28;20441;-71
2023/10/14 01:38:23;;;;;;;56.27;2.20;;;;;;;;;;5053650;28;20474;-72
2023/10/14 01:40:52;;;;;;;56.80;2.87;;;;;;;;;;5054029;28;20502;-72
2023/10/14 01:43:24;;;;;;;56.30;2.10;;;;;;;;;;5053801;28;20452;-72
2023/10/14 01:46:00;;;;;;;56.80;2.70;;;;;;;;;;5053756;28;20525;-72
2023/10/14 01:48:39;;;;;;;56.80;2.50;;;;;;;;;;5031181;28;20459;-72
2023/10/14 01:51:06;;;;;;;56.70;3.40;;;;;;;;;;5031053;28;20465;-72
2023/10/14 01:53:35;;;;;;;57.17;2.93;;;;;;;;;;5024102;28;20442;-72
2023/10/14 01:56:03;;;;;;;57.70;2.53;;;;;;;;;;5030486;28;20827;-72
2023/10/14 01:58:32;;;;;;;56.70;2.30;;;;;;;;;;5030950;28;20910;-72
2023/10/14 02:01:04;;;;;;;56.37;2.50;;;;;;;;;;5022338;28;20468;-72
2023/10/14 02:03:34;;;;;;;56.27;2.20;;;;;;;;;;5030944;28;20460;-72
2023/10/14 02:06:03;;;;;;;56.57;2.33;;;;;;;;;;5025357;28;20895;-72
2023/10/14 02:08:30;;;;;;;56.30;2.50;;;;;;;;;;5046404;28;20483;-71
2023/10/14 02:10:58;;;;;;;57.50;5.03;;;;;;;;;;5043320;28;20456;-72
2023/10/14 02:13:25;;;;;;;57.30;3.63;;;;;;;;;;5052917;28;20484;-71
2023/10/14 02:15:59;;;;;;;56.27;2.40;;;;;;;;;;5052929;28;20933;-71
2023/10/14 02:18:27;;;;;;;56.73;2.47;;;;;;;;;;5053150;28;20487;-72
2023/10/14 02:21:04;;;;;;;58.27;3.90;;;;;;;;;;5052740;28;20464;-72
2023/10/14 02:23:43;;;;;;;56.70;3.10;;;;;;;;;;5053207;28;20455;-72
2023/10/14 02:26:12;;;;;;;56.20;2.20;;;;;;;;;;5045002;28;20518;-72
2023/10/14 02:28:40;;;;;;;57.23;2.93;;;;;;;;;;5053166;28;20550;-72
2023/10/14 02:31:16;;;;;;;56.60;2.70;;;;;;;;;;5052785;28;20937;-72
2023/10/14 02:33:45;;;;;;;56.30;2.10;;;;;;;;;;5052391;28;20459;-72
2023/10/14 02:36:15;;;;;;;56.70;2.27;;;;;;;;;;5052693;28;20943;-72
2023/10/14 02:38:44;;;;;;;56.60;2.57;;;;;;;;;;5052764;28;20504;-72
2023/10/14 02:41:15;;;;;;;56.47;2.20;;;;;;;;;;5044986;28;20451;-72
2023/10/14 02:43:48;;;;;;;56.73;2.57;;;;;;;;;;5052648;28;20447;-72
2023/10/14 02:46:20;;;;;;;56.40;2.37;;;;;;;;;;5037317;28;20484;-72
2023/10/14 02:49:02;;;;;;;56.80;2.60;;;;;;;;;;5052342;28;20474;-72
2023/10/14 02:51:36;;;;;;;56.20;2.40;;;;;;;;;;5052837;28;20439;-72
2023/10/14 02:54:05;;;;;;;56.13;2.00;;;;;;;;;;5052882;28;20454;-72
2023/10/14 02:56:44;;;;;;;56.47;2.27;;;;;;;;;;5052422;28;20484;-72
2023/10/14 02:59:15;;;;;;;56.20;2.40;;;;;;;;;;5052231;28;20858;-72
2023/10/14 03:01:50;;;;;;;56.57;2.60;;;;;;;;;;5052004;28;20487;-72
2023/10/14 03:04:22;;;;;;;56.20;2.53;;;;;;;;;;5052180;28;20519;-72
2023/10/14 03:06:55;;;;;;;56.97;2.90;;;;;;;;;;5052250;28;20532;-72
2023/10/14 03:09:32;;;;;;;56.80;2.20;;;;;;;;;;5052207;28;20494;-71
2023/10/14 03:12:01;;;;;;;56.80;2.50;;;;;;;;;;5052331;28;20449;-72
2023/10/14 03:14:29;;;;;;;56.57;2.50;;;;;;;;;;5051982;28;20455;-72
2023/10/14 03:16:57;;;;;;;56.50;2.53;;;;;;;;;;5052206;28;20491;-72
2023/10/14 03:19:25;;;;;;;56.37;2.60;;;;;;;;;;5051837;28;20482;-72
2023/10/14 03:21:59;;;;;;;56.50;2.40;;;;;;;;;;5051796;28;20456;-72
2023/10/14 03:24:27;;;;;;;55.97;2.10;;;;;;;;;;5051874;28;20454;-72
2023/10/14 03:27:04;;;;;;;57.27;2.50;;;;;;;;;;5052300;28;20821;-72
2023/10/14 03:29:32;;;;;;;57.10;2.50;;;;;;;;;;5051645;28;20563;-72
2023/10/14 03:31:59;;;;;;;56.40;2.20;;;;;;;;;;5051301;28;20980;-72
2023/10/14 03:34:30;;;;;;;59.30;2.73;;;;;;;;;;5051784;28;20566;-72
2023/10/14 03:37:00;;;;;;;55.97;2.03;;;;;;;;;;5051725;28;20476;-73
2023/10/14 03:39:40;;;;;;;56.60;2.53;;;;;;;;;;5051712;28;20530;-72
2023/10/14 03:42:10;;;;;;;56.40;2.30;;;;;;;;;;5051597;28;20837;-72
2023/10/14 03:44:42;;;;;;;56.67;2.47;;;;;;;;;;5050971;28;20483;-73
2023/10/14 03:47:14;;;;;;;56.80;2.40;;;;;;;;;;5051466;28;20452;-73
2023/10/14 03:49:42;;;;;;;56.43;2.43;;;;;;;;;;5051605;28;20493;-73
2023/10/14 03:52:12;;;;;;;57.57;2.87;;;;;;;;;;5051584;28;20461;-72
2023/10/14 03:54:42;;;;;;;56.53;2.43;;;;;;;;;;5051417;28;20462;-72
2023/10/14 03:57:14;;;;;;;56.50;2.23;;;;;;;;;;5051470;28;20453;-71
2023/10/14 03:59:46;;;;;;;56.97;3.07;;;;;;;;;;5051249;28;20468;-72
2023/10/14 04:02:19;;;;;;;56.70;2.47;;;;;;;;;;5051238;28;20542;-71
2023/10/14 04:04:47;;;;;;;58.50;3.03;;;;;;;;;;5051174;28;20575;-72
2023/10/14 04:07:15;;;;;;;56.37;2.77;;;;;;;;;;5051526;28;20461;-72
2023/10/14 04:09:51;;;;;;;56.10;2.20;;;;;;;;;;5050822;28;20463;-72
2023/10/14 04:12:29;;;;;;;57.17;2.50;;;;;;;;;;5050898;28;20459;-71
2023/10/14 04:15:05;;;;;;;57.23;2.67;;;;;;;;;;5051182;28;20448;-72
2023/10/14 04:17:32;;;;;;;56.17;2.40;;;;;;;;;;5051141;28;20460;-72
2023/10/14 04:20:15;;;;;;;56.40;2.43;;;;;;;;;;5050910;28;20473;-72
2023/10/14 04:22:43;;;;;;;56.07;2.43;;;;;;;;;;5050909;28;20447;-72
2023/10/14 04:25:19;;;;;;;56.50;2.73;;;;;;;;;;5050747;28;20522;-72
2023/10/14 04:28:03;;;;;;;56.17;2.20;;;;;;;;;;5050943;28;20555;-72
2023/10/14 04:30:38;;;;;;;56.40;2.63;;;;;;;;;;5050667;28;20444;-72
2023/10/14 04:33:16;;;;;;;56.30;2.30;;;;;;;;;;5050714;28;20448;-72
2023/10/14 04:35:58;;;;;;;56.07;2.10;;;;;;;;;;5050965;28;20447;-72
2023/10/14 04:38:37;;;;;;;56.30;2.17;;;;;;;;;;5044108;28;20471;-72
2023/10/14 04:41:12;;;;;;;58.07;3.73;;;;;;;;;;5050678;28;20471;-71
2023/10/14 04:44:00;;;;;;;56.50;2.30;;;;;;;;;;5050752;28;20822;-71
2023/10/14 04:46:45;;;;;;;56.67;2.57;;;;;;;;;;5050388;28;20480;-71
2023/10/14 04:49:15;;;;;;;56.47;2.50;;;;;;;;;;5050996;28;20475;-71
2023/10/14 04:51:46;;;;;;;56.47;2.23;;;;;;;;;;5050846;28;20452;-71
2023/10/14 04:54:19;;;;;;;56.70;2.57;;;;;;;;;;5050617;28;20956;-71
2023/10/14 04:56:46;;;;;;;56.70;2.60;;;;;;;;;;5053023;28;20496;-71
2023/10/14 04:59:19;;;;;;;56.90;2.77;;;;;;;;;;5054404;28;20475;-71
2023/10/14 05:01:48;;;;;;;56.63;2.50;;;;;;;;;;5054561;28;20463;-70
2023/10/14 05:04:19;;;;;;;58.47;2.80;;;;;;;;;;5054191;28;20447;-71
2023/10/14 05:06:47;;;;;;;56.97;2.50;;;;;;;;;;5054457;28;20582;-70
2023/10/14 05:09:27;;;;;;;56.90;3.30;;;;;;;;;;5054407;28;20551;-70
2023/10/14 05:11:54;;;;;;;57.07;2.80;;;;;;;;;;5054316;28;20448;-70
2023/10/14 05:14:33;;;;;;;57.27;2.80;;;;;;;;;;5054198;28;20958;-70
2023/10/14 05:17:14;;;;;;;57.00;2.50;;;;;;;;;;5054314;28;20473;-71
2023/10/14 05:19:43;;;;;;;57.00;3.07;;;;;;;;;;5053990;28;20480;-70
2023/10/14 05:22:13;;;;;;;56.60;2.63;;;;;;;;;;5053765;28;20941;-70
2023/10/14 05:24:48;;;;;;;56.50;2.60;;;;;;;;;;5053985;28;20457;-70
2023/10/14 05:27:17;;;;;;;56.60;2.70;;;;;;;;;;5053716;28;20794;-70
2023/10/14 05:29:50;;;;;;;56.80;2.63;;;;;;;;;;5053880;28;20532;-70
2023/10/14 05:32:23;;;;;;;56.60;2.60;;;;;;;;;;5053734;28;20941;-70
2023/10/14 05:34:51;;;;;;;57.30;3.20;;;;;;;;;;5053881;28;20454;-71
2023/10/14 05:37:21;;;;;;;56.87;2.77;;;;;;;;;;5053700;28;20898;-70
2023/10/14 05:39:50;;;;;;;56.90;2.80;;;;;;;;;;5053544;28;20573;-70
2023/10/14 05:42:20;;;;;;;56.47;2.57;;;;;;;;;;5053135;28;20453;-71
2023/10/14 05:44:49;;;;;;;56.33;2.50;;;;;;;;;;5053569;28;20452;-70
2023/10/14 05:47:16;;;;;;;56.87;2.40;;;;;;;;;;5053590;28;20431;-70
2023/10/14 05:49:44;;;;;;;57.30;3.20;;;;;;;;;;5053427;28;20468;-70
2023/10/14 05:52:12;;;;;;;56.57;2.50;;;;;;;;;;5053532;28;20448;-70
2023/10/14 05:54:40;;;;;;;56.53;2.63;;;;;;;;;;5053191;28;20944;-70
2023/10/14 05:57:09;;;;;;;56.37;2.40;;;;;;;;;;5053537;28;20451;-70
2023/10/14 05:59:36;;;;;;;56.63;2.63;;;;;;;;;;5053504;28;20466;-70
2023/10/14 06:02:07;;;;;;;56.67;2.50;;;;;;;;;;5052988;28;20466;-71
2023/10/14 06:04:39;;;;;;;56.90;3.20;;;;;;;;;;5053106;28;20454;-70
2023/10/14 06:07:08;;;;;;;56.80;2.63;;;;;;;;;;5052995;28;20507;-70
2023/10/14 06:09:36;;;;;;;56.37;2.40;;;;;;;;;;5052977;28;20481;-70
2023/10/14 06:12:05;;;;;;;56.60;2.47;;;;;;;;;;5052891;28;20455;-70
2023/10/14 06:14:33;;;;;;;56.90;2.40;;;;;;;;;;5052938;28;20455;-71
2023/10/14 06:17:00;;;;;;;57.27;2.93;;;;;;;;;;5052679;28;20926;-70
2023/10/14 06:19:27;;;;;;;57.10;2.93;;;;;;;;;;5053029;28;20916;-70
2023/10/14 06:21:56;;;;;;;56.60;2.60;;;;;;;;;;5053006;28;20449;-71
2023/10/14 06:24:24;;;;;;;57.47;4.47;;;;;;;;;;5052983;28;20462;-70
2023/10/14 06:26:58;;;;;;;56.20;2.37;;;;;;;;;;5052748;28;20533;-70
2023/10/14 06:29:26;;;;;;;64.43;2.80;;;;;;;;;;5045311;28;20463;-71
2023/10/14 06:31:53;;;;;;;56.40;2.37;;;;;;;;;;5052654;28;21010;-70
2023/10/14 06:34:21;;;;;;;56.20;2.30;;;;;;;;;;5052806;28;20443;-70
2023/10/14 06:36:48;;;;;;;56.53;2.83;;;;;;;;;;5052701;28;20453;-71
2023/10/14 06:39:26;;;;;;;59.80;2.40;;;;;;;;;;5052255;28;20468;-70
2023/10/14 06:41:55;;;;;;;56.40;2.80;;;;;;;;;;5052554;28;20510;-70
2023/10/14 06:44:27;;;;;;;57.00;2.80;;;;;;;;;;5044308;28;20495;-71
2023/10/14 06:46:54;;;;;;;56.17;2.20;;;;;;;;;;5052560;28;20497;-71
2023/10/14 06:49:22;;;;;;;56.30;2.27;;;;;;;;;;5052313;28;20464;-70
2023/10/14 06:51:51;;;;;;;56.57;2.60;;;;;;;;;;5052220;28;20523;-71
2023/10/14 06:54:25;;;;;;;56.87;2.77;;;;;;;;;;5052143;28;20717;-70
2023/10/14 06:56:53;;;;;;;56.47;2.50;;;;;;;;;;5052695;28;20911;-70
2023/10/14 06:59:21;;;;;;;56.50;2.73;;;;;;;;;;5051456;28;20868;-71
2023/10/14 07:01:49;;;;;;;56.17;2.10;;;;;;;;;;5051968;28;20467;-70
2023/10/14 07:04:17;;;;;;;56.60;2.43;;;;;;;;;;5051864;28;20455;-70
2023/10/14 07:06:47;;;;;;;56.80;2.87;;;;;;;;;;5052206;28;20487;-70
2023/10/14 07:09:18;;;;;;;56.60;2.90;;;;;;;;;;5051518;28;20565;-70
2023/10/14 07:11:45;;;;;;;56.17;2.20;;;;;;;;;;5051915;28;20456;-70
2023/10/14 07:14:12;;;;;;;56.10;2.40;;;;;;;;;;5052004;28;20973;-70
2023/10/14 07:16:41;;;;;;;55.70;2.13;;;;;;;;;;5051947;28;20448;-71
2023/10/14 07:19:08;;;;;;;56.50;2.37;;;;;;;;;;5050844;28;20465;-70
2023/10/14 07:21:35;;;;;;;56.00;2.20;;;;;;;;;;5051529;28;20457;-70
2023/10/14 07:24:06;;;;;;;56.20;2.43;;;;;;;;;;5051428;28;20457;-70
2023/10/14 07:26:36;;;;;;;56.10;2.40;;;;;;;;;;5051871;28;20671;-70
2023/10/14 07:29:05;;;;;;;56.10;2.00;;;;;;;;;;5051397;28;20993;-70
2023/10/14 07:31:32;;;;;;;56.37;2.27;;;;;;;;;;5051359;28;20959;-70
2023/10/14 07:34:08;;;;;;;56.77;2.10;;;;;;;;;;5051761;28;20452;-70
2023/10/14 07:36:36;;;;;;;56.07;2.37;;;;;;;;;;5051821;28;20448;-70
2023/10/14 07:39:26;;;;;;;55.97;2.00;;;;;;;;;;5051089;28;20464;-70
2023/10/14 07:41:52;;;;;;;58.10;2.20;;;;;;;;;;5051144;28;20451;-70
2023/10/14 07:44:19;;;;;;;56.20;2.40;;;;;;;;;;5051300;28;20539;-70
2023/10/14 07:46:47;;;;;;;55.87;1.87;;;;;;;;;;5051117;28;20544;-70
2023/10/14 07:49:15;;;;;;;56.17;2.10;;;;;;;;;;5051241;28;20472;-70
2023/10/14 07:51:42;;;;;;;56.17;2.20;;;;;;;;;;5051273;28;20458;-70
2023/10/14 07:54:12;;;;;;;56.50;2.73;;;;;;;;;;5051171;28;20455;-70
2023/10/14 07:56:39;;;;;;;55.90;2.07;;;;;;;;;;5050983;28;20444;-70
2023/10/14 07:59:08;;;;;;;56.00;2.10;;;;;;;;;;5051024;28;20475;-70
2023/10/14 08:01:37;;;;;;;55.90;2.20;;;;;;;;;;5050931;28;20478;-70
2023/10/14 08:04:07;;;;;;;56.20;2.00;;;;;;;;;;5051110;28;20457;-71
2023/10/14 08:06:40;;;;;;;56.97;3.70;;;;;;;;;;5051000;28;20482;-70
2023/10/14 08:09:15;;;;;;;55.83;1.80;;;;;;;;;;5050807;28;20860;-71
2023/10/14 08:11:42;;;;;;;55.87;2.03;;;;;;;;;;5050832;28;20451;-70
2023/10/14 08:14:10;;;;;;;55.90;2.10;;;;;;;;;;5051310;28;20448;-70
2023/10/14 08:16:37;;;;;;;56.00;1.80;;;;;;;;;;5051298;28;20441;-70
2023/10/14 08:19:06;;;;;;;56.13;2.13;;;;;;;;;;5050859;28;20524;-70
2023/10/14 08:21:36;;;;;;;55.97;1.90;;;;;;;;;;5050774;28;20490;-70
2023/10/14 08:24:06;;;;;;;56.07;2.07;;;;;;;;;;5051060;28;20451;-71
2023/10/14 08:26:34;;;;;;;55.87;1.87;;;;;;;;;;5050332;28;20498;-71
2023/10/14 08:29:01;;;;;;;55.77;1.80;;;;;;;;;;5050224;28;20498;-71
2023/10/14 08:31:32;;;;;;;56.07;2.00;;;;;;;;;;5045009;28;20490;-71
2023/10/14 08:33:59;;;;;;;56.13;2.13;;;;;;;;;;5055438;28;20887;-71
2023/10/14 08:36:26;;;;;;;56.03;2.27;;;;;;;;;;5046894;28;20541;-71
2023/10/14 08:38:54;;;;;;;56.00;1.90;;;;;;;;;;5054661;28;20471;-72
2023/10/14 08:41:22;;;;;;;55.97;1.97;;;;;;;;;;5054915;28;20446;-71
2023/10/14 08:43:50;;;;;;;55.93;2.00;;;;;;;;;;5055037;28;20456;-71
2023/10/14 08:46:18;;;;;;;56.20;2.10;;;;;;;;;;5054900;28;20491;-71
2023/10/14 08:48:50;;;;;;;56.60;2.43;;;;;;;;;;5054549;28;20483;-72
2023/10/14 08:51:18;;;;;;;55.87;2.40;;;;;;;;;;5054771;28;20864;-72
2023/10/14 08:53:46;;;;;;;56.03;2.10;;;;;;;;;;5054676;28;20950;-72
2023/10/14 08:56:13;;;;;;;56.07;2.03;;;;;;;;;;5055050;28;20435;-72
2023/10/14 08:58:42;;;;;;;56.10;1.90;;;;;;;;;;5054660;28;20467;-70
2023/10/14 09:01:14;;;;;;;56.17;2.10;;;;;;;;;;5054309;28;20451;-71
2023/10/14 09:03:45;;;;;;;55.87;1.83;;;;;;;;;;5054416;28;20821;-71
2023/10/14 09:06:12;;;;;;;55.90;2.10;;;;;;;;;;5054327;28;20525;-71
2023/10/14 09:08:39;;;;;;;57.80;4.37;;;;;;;;;;5054456;28;20475;-71
2023/10/14 09:11:07;;;;;;;56.20;2.80;;;;;;;;;;5054279;28;20932;-71
2023/10/14 09:13:36;;;;;;;55.87;1.70;;;;;;;;;;5054514;28;20471;-71
2023/10/14 09:16:09;;;;;;;55.70;1.73;;;;;;;;;;5054260;28;20501;-71
2023/10/14 09:18:37;;;;;;;56.57;2.17;;;;;;;;;;5054236;28;20476;-71
2023/10/14 09:21:06;;;;;;;55.80;1.90;;;;;;;;;;5054499;28;20450;-71
2023/10/14 09:23:33;;;;;;;56.27;2.30;;;;;;;;;;5054151;28;20871;-71
2023/10/14 09:26:01;;;;;;;56.00;1.90;;;;;;;;;;5054007;28;20554;-71
2023/10/14 09:28:29;;;;;;;56.17;2.03;;;;;;;;;;5053918;28;20463;-71
2023/10/14 09:30:57;;;;;;;56.30;1.90;;;;;;;;;;5053942;28;20844;-71
2023/10/14 09:33:27;;;;;;;56.33;2.00;;;;;;;;;;5053878;28;20518;-71
2023/10/14 09:35:55;;;;;;;56.33;2.17;;;;;;;;;;5053730;28;21008;-71
2023/10/14 09:38:23;;;;;;;56.50;2.07;;;;;;;;;;5053844;28;20470;-71
2023/10/14 09:40:53;;;;;;;56.23;2.30;;;;;;;;;;5053612;28;20955;-71
2023/10/14 09:43:23;;;;;;;56.60;2.37;;;;;;;;;;5052363;28;20448;-72
2023/10/14 09:45:50;;;;;;;56.70;2.50;;;;;;;;;;5053772;28;20453;-71
2023/10/14 09:48:17;;;;;;;56.40;2.50;;;;;;;;;;5053952;28;20492;-72
2023/10/14 09:50:47;;;;;;;56.47;2.30;;;;;;;;;;5050395;28;20802;-72
2023/10/14 09:53:15;;;;;;;56.47;2.23;;;;;;;;;;5050719;28;20466;-72
2023/10/14 09:55:43;;;;;;;56.43;2.20;;;;;;;;;;5049167;28;20462;-72
2023/10/14 09:58:12;;;;;;;56.47;2.60;;;;;;;;;;5053129;28;20543;-72
2023/10/14 10:00:39;;;;;;;56.27;2.50;;;;;;;;;;5053245;28;20454;-72
2023/10/14 10:03:07;;;;;;;56.53;2.57;;;;;;;;;;5053382;28;20448;-71
2023/10/14 10:05:40;;;;;;;55.87;2.10;;;;;;;;;;5053429;28;20451;-71
2023/10/14 10:08:18;;;;;;;56.60;2.70;;;;;;;;;;5053094;28;20555;-71
2023/10/14 10:10:47;;;;;;;56.50;2.50;;;;;;;;;;5053187;28;20463;-71
2023/10/14 10:13:15;;;;;;;56.07;2.30;;;;;;;;;;5053110;28;20868;-71
2023/10/14 10:15:44;;;;;;;56.90;2.13;;;;;;;;;;5053030;28;20935;-71
2023/10/14 10:18:15;;;;;;;56.20;2.20;;;;;;;;;;5053037;28;20448;-71
2023/10/14 10:20:48;;;;;;;55.70;1.87;;;;;;;;;;5052842;28;20831;-71
2023/10/14 10:23:17;;;;;;;56.07;2.00;;;;;;;;;;5053209;28;20448;-71
2023/10/14 10:25:49;;;;;;;56.07;1.93;;;;;;;;;;5053174;28;20817;-71
2023/10/14 10:28:35;;;;;;;55.87;1.80;;;;;;;;;;5052733;28;20487;-71
2023/10/14 10:31:07;;;;;;;56.10;1.90;;;;;;;;;;5052658;28;20459;-71
2023/10/14 10:33:45;;;;;;;55.97;1.90;;;;;;;;;;5052563;28;20452;-71
2023/10/14 10:36:13;;;;;;;55.77;1.80;;;;;;;;;;5052844;28;20887;-71
2023/10/14 10:38:43;;;;;;;55.97;1.90;;;;;;;;;;5052553;28;20477;-71
2023/10/14 10:41:19;;;;;;;56.40;2.20;;;;;;;;;;5052579;28;20455;-71
2023/10/14 10:43:47;;;;;;;56.20;1.90;;;;;;;;;;5052909;28;20508;-71
2023/10/14 10:46:29;;;;;;;56.00;2.00;;;;;;;;;;5052297;28;20458;-71
2023/10/14 10:48:56;;;;;;;56.20;2.00;;;;;;;;;;5052153;28;20465;-71
2023/10/14 10:51:23;;;;;;;56.30;2.27;;;;;;;;;;5052525;28;20441;-71
2023/10/14 10:53:52;;;;;;;56.07;2.07;;;;;;;;;;5052153;28;20454;-71
2023/10/14 10:56:20;;;;;;;55.97;2.20;;;;;;;;;;5052117;28;20444;-71
2023/10/14 10:58:48;;;;;;;56.07;1.97;;;;;;;;;;5052361;28;20470;-71
2023/10/14 11:01:15;;;;;;;55.97;2.00;;;;;;;;;;5052009;28;20444;-71
2023/10/14 11:03:45;;;;;;;56.17;1.90;;;;;;;;;;5052125;28;20490;-71
2023/10/14 11:06:13;;;;;;;56.10;2.00;;;;;;;;;;5052156;28;20469;-71
2023/10/14 11:08:40;;;;;;;56.17;2.00;;;;;;;;;;5052000;28;20523;-71
2023/10/14 11:11:09;;;;;;;56.17;2.00;;;;;;;;;;5052169;28;20533;-71
2023/10/14 11:13:36;;;;;;;56.40;2.30;;;;;;;;;;5051943;28;20940;-71
2023/10/14 11:16:11;;;;;;;56.00;2.00;;;;;;;;;;5051971;28;20525;-71
2023/10/14 11:18:45;;;;;;;56.07;2.10;;;;;;;;;;5051739;28;20464;-71
2023/10/14 11:21:13;;;;;;;56.00;2.13;;;;;;;;;;5051635;28;20448;-71
2023/10/14 11:23:40;;;;;;;55.97;2.07;;;;;;;;;;5051851;28;20453;-71
2023/10/14 11:26:12;;;;;;;56.30;2.37;;;;;;;;;;5052111;28;20443;-71
2023/10/14 11:28:39;;;;;;;56.40;2.30;;;;;;;;;;5051794;28;21006;-71
2023/10/14 11:31:08;;;;;;;56.10;2.20;;;;;;;;;;5051877;28;20459;-71
2023/10/14 11:33:35;;;;;;;56.23;2.40;;;;;;;;;;5051623;28;20929;-71
2023/10/14 11:36:03;;;;;;;56.30;2.40;;;;;;;;;;5051476;28;20994;-71
2023/10/14 11:38:31;;;;;;;55.97;2.10;;;;;;;;;;5051715;28;20469;-72
2023/10/14 11:40:59;;;;;;;56.27;2.30;;;;;;;;;;5051769;28;20455;-72
2023/10/14 11:43:28;;;;;;;56.50;2.30;;;;;;;;;;5051447;28;20458;-72
2023/10/14 11:45:57;;;;;;;56.07;2.20;;;;;;;;;;5051785;28;20444;-72
2023/10/14 11:48:24;;;;;;;56.03;2.30;;;;;;;;;;5051553;28;20498;-72
2023/10/14 11:50:55;;;;;;;56.27;2.30;;;;;;;;;;5051736;28;20455;-72
2023/10/14 11:53:28;;;;;;;56.47;2.50;;;;;;;;;;5051631;28;20519;-72
2023/10/14 11:55:58;;;;;;;56.30;2.20;;;;;;;;;;5051468;28;20849;-72
2023/10/14 11:58:25;;;;;;;56.17;2.20;;;;;;;;;;5051536;28;20797;-72
2023/10/14 12:00:54;;;;;;;56.17;2.17;;;;;;;;;;5051282;28;20486;-72
2023/10/14 12:03:25;;;;;;;56.30;2.20;;;;;;;;;;5051629;28;20459;-72
2023/10/14 12:05:57;;;;;;;56.17;2.10;;;;;;;;;;5050885;28;20456;-71
2023/10/14 12:08:25;;;;;;;56.70;2.30;;;;;;;;;;5051313;28;20528;-72
2023/10/14 12:10:52;;;;;;;56.33;2.30;;;;;;;;;;5050973;28;20462;-72
2023/10/14 12:13:19;;;;;;;56.63;2.20;;;;;;;;;;5050928;28;20456;-72
2023/10/14 12:15:47;;;;;;;56.60;2.70;;;;;;;;;;5051201;28;20460;-72
2023/10/14 12:18:15;;;;;;;56.27;2.40;;;;;;;;;;5051155;28;20446;-72
2023/10/14 12:20:45;;;;;;;56.70;2.30;;;;;;;;;;5050683;28;20451;-72
2023/10/14 12:23:13;;;;;;;56.33;2.20;;;;;;;;;;5050904;28;20460;-73
2023/10/14 12:25:40;;;;;;;56.90;2.37;;;;;;;;;;5050976;28;20870;-72
2023/10/14 12:28:07;;;;;;;56.50;2.60;;;;;;;;;;5051093;28;20514;-72
2023/10/14 12:30:41;;;;;;;56.50;2.20;;;;;;;;;;5050936;28;20457;-71
2023/10/14 12:33:08;;;;;;;57.03;3.47;;;;;;;;;;5050753;28;20459;-72
2023/10/14 12:35:39;;;;;;;56.67;2.30;;;;;;;;;;5050946;28;21007;-72
2023/10/14 12:38:11;;;;;;;56.47;2.20;;;;;;;;;;5050989;28;20841;-72
2023/10/14 12:40:39;;;;;;;56.43;2.37;;;;;;;;;;5050615;28;20523;-72
2023/10/14 12:43:06;;;;;;;57.10;2.87;;;;;;;;;;5050993;28;20845;-72
2023/10/14 12:45:34;;;;;;;56.40;2.10;;;;;;;;;;5050535;28;20958;-72
2023/10/14 12:48:09;;;;;;;56.17;2.30;;;;;;;;;;5050560;28;20997;-72
2023/10/14 12:50:40;;;;;;;56.47;2.30;;;;;;;;;;5060474;28;20450;-72
2023/10/14 12:53:08;;;;;;;56.37;2.27;;;;;;;;;;5065133;28;20475;-72
2023/10/14 12:55:36;;;;;;;56.33;2.50;;;;;;;;;;5067434;28;20458;-72
2023/10/14 12:58:03;;;;;;;56.17;2.37;;;;;;;;;;5062080;28;20450;-72
2023/10/14 13:00:30;;;;;;;56.40;2.30;;;;;;;;;;5061896;28;20511;-72
2023/10/14 13:02:58;;;;;;;56.23;2.43;;;;;;;;;;5057868;28;20450;-72
2023/10/14 13:05:25;;;;;;;56.10;2.30;;;;;;;;;;5053258;28;20448;-72
2023/10/14 13:07:54;;;;;;;56.50;2.20;;;;;;;;;;5052801;28;20484;-71
2023/10/14 13:10:22;;;;;;;56.27;2.20;;;;;;;;;;5055715;28;20470;-72
2023/10/14 13:12:50;;;;;;;56.40;2.50;;;;;;;;;;5055117;28;20461;-72
2023/10/14 13:15:27;;;;;;;56.60;2.40;;;;;;;;;;5055853;28;20451;-72
2023/10/14 13:17:58;;;;;;;56.27;2.13;;;;;;;;;;5056061;28;20460;-72
2023/10/14 13:20:27;;;;;;;56.27;2.10;;;;;;;;;;5056946;28;20442;-72
2023/10/14 13:22:56;;;;;;;56.27;2.40;;;;;;;;;;5052467;28;20450;-72
2023/10/14 13:25:23;;;;;;;56.27;2.50;;;;;;;;;;5053336;28;20955;-73
2023/10/14 13:27:51;;;;;;;56.00;2.20;;;;;;;;;;5054013;28;20491;-72
2023/10/14 13:30:22;;;;;;;56.27;2.30;;;;;;;;;;5053888;28;20474;-72
2023/10/14 13:32:52;;;;;;;56.60;2.50;;;;;;;;;;5053761;28;20952;-72
2023/10/14 13:35:19;;;;;;;56.37;2.40;;;;;;;;;;5053984;28;20447;-72
2023/10/14 13:37:46;;;;;;;56.40;2.20;;;;;;;;;;5054109;28;20446;-72
2023/10/14 13:40:20;;;;;;;56.40;2.20;;;;;;;;;;5053962;28;20481;-72
2023/10/14 13:42:47;;;;;;;56.27;2.30;;;;;;;;;;5046510;28;20904;-72
2023/10/14 13:45:16;;;;;;;56.27;2.17;;;;;;;;;;5053779;28;20935;-72
2023/10/14 13:47:43;;;;;;;56.83;2.73;;;;;;;;;;5053609;28;20981;-72
2023/10/14 13:50:12;;;;;;;56.70;2.60;;;;;;;;;;5053879;28;20494;-72
2023/10/14 13:52:39;;;;;;;56.40;2.20;;;;;;;;;;5053669;28;20442;-72
2023/10/14 13:55:07;;;;;;;56.43;2.17;;;;;;;;;;5053526;28;20456;-72
2023/10/14 13:57:35;;;;;;;56.17;2.30;;;;;;;;;;5053551;28;20449;-72
2023/10/14 14:00:07;;;;;;;56.17;2.10;;;;;;;;;;5053366;28;20835;-72
2023/10/14 14:02:35;;;;;;;56.27;2.10;;;;;;;;;;5053318;28;20543;-72
2023/10/14 14:05:04;;;;;;;56.30;2.10;;;;;;;;;;5053374;28;20529;-71
2023/10/14 14:07:36;;;;;;;56.07;2.10;;;;;;;;;;5053326;28;20520;-72
2023/10/14 14:10:05;;;;;;;55.93;2.00;;;;;;;;;;5053262;28;21018;-71
2023/10/14 14:12:33;;;;;;;56.07;2.00;;;;;;;;;;5049880;28;20458;-72
2023/10/14 14:15:06;;;;;;;56.20;2.10;;;;;;;;;;5052467;28;20952;-73
2023/10/14 14:17:33;;;;;;;56.47;2.20;;;;;;;;;;5052498;28;20513;-72
2023/10/14 14:20:01;;;;;;;56.37;2.17;;;;;;;;;;5052536;28;20487;-72
2023/10/14 14:22:28;;;;;;;56.40;2.20;;;;;;;;;;5052011;28;20449;-71
2023/10/14 14:24:56;;;;;;;56.90;2.93;;;;;;;;;;5053067;28;20944;-71
2023/10/14 14:27:23;;;;;;;57.20;2.63;;;;;;;;;;5053121;28;20444;-71
2023/10/14 14:29:53;;;;;;;56.27;2.20;;;;;;;;;;5052247;28;20492;-71
2023/10/14 14:32:21;;;;;;;56.40;2.30;;;;;;;;;;5052782;28;20461;-71
2023/10/14 14:34:49;;;;;;;56.60;2.40;;;;;;;;;;5052904;28;20448;-71
2023/10/14 14:37:16;;;;;;;56.60;2.40;;;;;;;;;;5053029;28;20527;-72
2023/10/14 14:39:43;;;;;;;56.70;2.60;;;;;;;;;;5052626;28;20460;-72
2023/10/14 14:42:13;;;;;;;57.00;2.93;;;;;;;;;;5053058;28;20925;-73
2023/10/14 14:44:41;;;;;;;56.50;2.20;;;;;;;;;;5052748;28;20494;-72
2023/10/14 14:47:09;;;;;;;56.33;2.10;;;;;;;;;;5052611;28;20455;-73